Hauptseite
METAR-TAF:

METAR-TAF

Flughäfen :

Shanghai Pudong International Airport

Shanghai-Pudong, China

Breite: 31-07N, Länge: 121-46E, Höhe: 4 m

Beobachtung

Neuester Wetterbericht von vor 34 Minuten, um 00:30 UTC
Wind 12 kt aus Südost
Temperatur 19°C
Luftfeuchtigkeit 88%
Luftdruck 1012 hPa
Sichtweite 10 km oder mehr
Leicht bewölkt in der Höhe von 2000 ft
Durchbrochene Bewölkung in der Höhe von 3300 ft

METAR: ZSPD 200030Z 13006MPS 9999 FEW020 BKN033 19/17 Q1012 NOSIG

Zeit: 09:04 (01:04 UTC)

Prognose

Neuester Wetterbericht von vor 3 Stunden und 53 Minuten, um 21:11 UTC
Gültige Prognose vom 20 um 00 UTC bis 20 um 24 UTC
Wind 8 kt aus Ost/Südost
Sichtweite: 3500 m
Durchbrochene Bewölkung in der Höhe von 1000 ft
feuchter Dunst

TAF: ZSPD 192111Z 2000/2024 11004MPS 3500 BR BKN010 TX22/2006Z TN16/2021Z

Wetterbeobachtungen und Prognosen von mehr als 4000 Flughäfen (METAR und TAF Bericht).

Die verfügbaren Stationen werden durch gelbe und rote Markierungen auf der Karte dargestellt.

Führen Sie die Maus auf sie, um den Namen der Station zu sehen.

Darauf klicken, um die Beobachtung von Wetterbeobachtungen und Prognosen zu sehen.

Um die Karte zu ändern : klicken Sie auf den grünen Tasten mit einem schwarzen Kreuz Zum Vergrößern, auf den grünen Button mit einem Gedankenstrich zu verkleinern, oder auf die grünen Pfeile für benachbarte Karten.


METAR-TAF: